Vesper, Wisconsin
Current Conditions -  °F | °C
As of 9:54 AM on Wednesday 26 Nov 2014 (Local Time) from KISW Reporting Station
Overcast Overcast  
Wind Chill: 11°   Ceiling: 8000
Heat Index: 18°   Visibility: NA
Dew Point: 12°   Wind: 5mph
Humidity: 78%   Direction: 100°E
Pressure: 30.15"   Gusts: NA
Location:  44.48°N, 89.96°W
Report Text: KISW 261554Z AUTO 10004KT OVC080 M08/M11 A3015 RMK AO2 SLP230 T10781111 $
Loading
Personal Weather Stations






























Interactive Weather Map New forecast layout! Learn more

10-Day Weather Forecast

Advertisements
Track Severe Weather on mobile